Flight Track Log - Related Links

Times and Time Zones

All times are in EDT time to prevent confusion due to time zone crossing. See the CPT8773 flight status page for this flight to view local times or setup timezone preferences in your user account.

Time Position Orientation Groundspeed Altitude Reporting Facility
EDT Latitude Longitude Course Direction KTS MPH feet Rate Location/Type
Fri 10:13:19 AM 42.9817 -106.4622 308° West 146 168 7,100  Level Salt Center
Fri 10:14:09 AM 43.0119 -106.4700 349° North 144 166 7,700 696 Climbing Denver Center
Fri 10:15:11 AM 43.0472 -106.4767 352° North 139 160 8,400 726 Climbing Denver Center
Fri 10:16:13 AM 43.0883 -106.4817 355° North 136 157 9,200 726 Climbing Denver Center
Fri 10:17:00 AM 43.0947 -106.2866 308° West  Level FlightAware
Fri 10:17:15 AM 43.1217 -106.4836 358° North 131 151 9,900  Level Denver Center
Fri 10:18:00 AM 43.1200 -106.3308 308° West  Level FlightAware
Fri 10:18:17 AM 43.1600 -106.4811 North 126 145 10,500  Level Denver Center
Fri 10:19:19 AM 43.1939 -106.4839 357° North 126 145 11,200 677 Climbing Denver Center
Fri 10:20:21 AM 43.2186 -106.5181 315° West 120 138 11,900 387 Climbing Denver Center
Fri 10:21:23 AM 43.2361 -106.5569 302° West 125 144 12,000 48 Climbing Denver Center
Fri 10:22:25 AM 43.2642 -106.6092 306° West 148 170 12,000  Level Denver Center
Fri 10:23:27 AM 43.2900 -106.6542 308° West 156 180 12,000  Level Denver Center
Fri 10:24:29 AM 43.3189 -106.7081 306° West 157 181 12,000  Level Denver Center
Fri 10:25:31 AM 43.3422 -106.7522 306° West 151 174 12,000  Level Denver Center
Fri 10:26:33 AM 43.3647 -106.7969 305° West 149 171 12,000 48 Level Denver Center
Fri 10:27:35 AM 43.3911 -106.8478 306° West 148 170 12,100 48 Climbing Denver Center
Fri 10:28:37 AM 43.4169 -106.8978 305° West 150 173 12,100  Level Denver Center
Fri 10:29:39 AM 43.4408 -106.9444 305° West 150 173 12,100  Level Denver Center
Fri 10:30:41 AM 43.4653 -106.9903 306° West 149 171 12,100  Level Denver Center
Fri 10:31:43 AM 43.4894 -107.0364 306° West 149 171 12,100  Level Denver Center
Fri 10:32:45 AM 43.5144 -107.0828 307° West 150 173 12,100 -45 Level Denver Center
Fri 10:33:56 AM 43.5419 -107.1408 303° West 150 173 12,000 -45 Descending Salt Center
Fri 10:34:58 AM 43.5658 -107.1861 306° West 147 169 12,000  Level Salt Center
Fri 10:36:00 AM 43.5944 -107.2419 305° West 149 171 12,000  Level Salt Center
Fri 10:37:02 AM 43.6175 -107.2886 304° West 148 170 12,000  Level Salt Center
Fri 10:38:04 AM 43.6422 -107.3350 306° West 150 173 12,000  Level Salt Center
Fri 10:39:06 AM 43.6667 -107.3811 306° West 149 171 12,000  Level Salt Center
Fri 10:40:08 AM 43.6908 -107.4278 306° West 150 173 12,000  Level Salt Center
Fri 10:41:10 AM 43.7164 -107.4744 307° West 152 175 12,000  Level Salt Center
Fri 10:42:12 AM 43.7439 -107.5317 304° West 150 173 12,000  Level Salt Center
Fri 10:43:14 AM 43.7700 -107.5778 308° West 150 173 12,000  Level Salt Center
Fri 10:44:16 AM 43.7950 -107.6253 306° West 152 175 12,000  Level Salt Center
Fri 10:45:18 AM 43.8189 -107.6722 305° West 151 174 12,000  Level Salt Center
Fri 10:46:20 AM 43.8414 -107.7203 303° West 150 173 12,000  Level Salt Center
Fri 10:47:22 AM 43.8653 -107.7653 306° West 148 170 12,000  Level Salt Center
Fri 10:48:24 AM 43.8947 -107.8206 306° West 148 170 12,000  Level Salt Center
Fri 10:49:26 AM 43.9183 -107.8683 304° West 149 171 12,000  Level Salt Center
Fri 10:50:28 AM 43.9422 -107.9167 304° West 150 173 12,000  Level Salt Center
Fri 10:51:30 AM 43.9675 -107.9642 306° West 151 174 12,000  Level Salt Center
Fri 10:52:33 AM 43.9967 -108.0058 314° West 152 175 12,000 48 Level Salt Center
Fri 10:53:35 AM 44.0264 -108.0486 314° West 153 176 12,100 48 Climbing Salt Center
Fri 10:54:37 AM 44.0600 -108.1008 312° West 152 175 12,100  Level Salt Center
Fri 10:55:39 AM 44.0875 -108.1469 310° West 153 176 12,100  Level Salt Center
Fri 10:56:41 AM 44.1114 -108.1958 304° West 153 176 12,100  Level Salt Center
Fri 10:57:43 AM 44.1350 -108.2444 304° West 152 175 12,100  Level Salt Center
Fri 10:58:45 AM 44.1592 -108.2931 305° West 152 175 12,100  Level Salt Center
Fri 10:59:47 AM 44.1833 -108.3425 304° West 153 176 12,100  Level Salt Center
Fri 11:00:49 AM 44.2081 -108.3917 305° West 154 177 12,100  Level Salt Center

Login

Don't have an account? Register now (free) for customized features, flight alerts, and more!